Time;durP1;ratioP1;P1;durP2;ratioP2;P2;SDS_P1;SDS_P2;PMS_P1;PMS_P2;Temp;Humidity;BMP_temperature;BMP_pressure;BME280_temperature;BME280_humidity;BME280_pressure;Samples;Min_cycle;Max_cycle;Signal;HPM_P1;HPM_P2
2022/09/16 00:00:33;;;;;;;6.35;1.87;;;;;;;11.91;67.88;99522.77;1793065;79;21030;-88
2022/09/16 00:03:02;;;;;;;10.58;2.45;;;;;;;11.84;67.90;99528.48;1792334;79;21047;-87
2022/09/16 00:05:28;;;;;;;5.97;2.50;;;;;;;11.77;67.93;99517.48;1792403;79;21050;-87
2022/09/16 00:07:55;;;;;;;8.68;2.12;;;;;;;11.70;68.01;99530.22;1792176;79;21564;-87
2022/09/16 00:10:22;;;;;;;12.10;2.65;;;;;;;11.63;68.10;99524.05;1792521;79;21102;-87
2022/09/16 00:12:49;;;;;;;7.60;1.80;;;;;;;11.57;68.16;99528.00;1789946;79;21062;-87
2022/09/16 00:15:16;;;;;;;9.55;1.85;;;;;;;11.52;68.24;99528.87;1768483;80;21744;-87
2022/09/16 00:17:43;;;;;;;8.23;2.10;;;;;;;11.46;68.36;99525.34;1779271;79;21054;-87
2022/09/16 00:20:09;;;;;;;8.85;2.12;;;;;;;11.41;68.40;99523.58;1779317;79;21086;-87
2022/09/16 00:22:36;;;;;;;9.00;2.20;;;;;;;11.34;68.50;99528.41;1779737;79;21054;-86
2022/09/16 00:25:03;;;;;;;7.28;2.30;;;;;;;11.30;68.58;99524.89;1789040;79;21444;-87
2022/09/16 00:27:30;;;;;;;7.53;1.98;;;;;;;11.27;68.66;99524.42;1793223;79;21753;-87
2022/09/16 00:29:57;;;;;;;10.65;1.92;;;;;;;11.23;68.72;99521.80;1792919;79;21517;-86
2022/09/16 00:32:24;;;;;;;7.85;1.72;;;;;;;11.14;68.80;99515.19;1793221;79;21035;-86
2022/09/16 00:34:51;;;;;;;7.47;1.87;;;;;;;11.20;68.87;99530.99;1792918;79;21093;-87
2022/09/16 00:37:18;;;;;;;10.05;2.00;;;;;;;11.18;68.90;99528.80;1792702;79;21054;-86
2022/09/16 00:39:48;;;;;;;7.10;1.70;;;;;;;11.16;68.96;99530.10;1792446;79;22629;-87
2022/09/16 00:42:15;;;;;;;9.93;2.17;;;;;;;11.15;68.97;99523.51;1771769;79;21561;-87
2022/09/16 00:45:01;;;;;;;5.33;1.80;;;;;;;11.13;68.99;99529.21;1796520;79;21554;-87
2022/09/16 00:47:39;;;;;;;9.03;1.90;;;;;;;11.11;69.04;99524.38;1799619;78;20991;-87
2022/09/16 00:50:20;;;;;;;7.80;2.30;;;;;;;11.07;69.03;99532.70;1798597;78;21015;-87
2022/09/16 00:52:47;;;;;;;8.20;2.00;;;;;;;11.04;69.14;99531.40;1798320;78;21698;-86
2022/09/16 00:55:18;;;;;;;4.03;1.35;;;;;;;11.02;69.25;99528.75;1798106;78;21090;-86
2022/09/16 00:57:45;;;;;;;5.60;1.55;;;;;;;11.03;69.34;99529.63;1776087;79;22283;-85
2022/09/16 01:00:12;;;;;;;6.60;1.70;;;;;;;11.01;69.31;99526.11;1800759;79;20992;-85
2022/09/16 01:02:41;;;;;;;5.95;1.70;;;;;;;10.99;69.34;99522.14;1801310;78;21011;-85
2022/09/16 01:05:12;;;;;;;8.48;2.05;;;;;;;10.98;69.34;99526.98;1801431;79;21757;-86
2022/09/16 01:07:50;;;;;;;10.75;1.80;;;;;;;10.96;69.39;99530.05;1782907;78;21027;-87
2022/09/16 01:10:19;;;;;;;8.75;1.95;;;;;;;10.95;69.40;99525.65;1777777;79;21035;-86
2022/09/16 01:12:49;;;;;;;8.80;2.02;;;;;;;10.95;69.40;99533.55;1776490;79;21435;-86
2022/09/16 01:15:16;;;;;;;9.98;1.87;;;;;;;10.93;69.41;99530.03;1764342;79;21569;-87
2022/09/16 01:18:08;;;;;;;11.43;1.90;;;;;;;10.90;69.48;99526.06;1785372;79;22509;-86
2022/09/16 01:21:14;;;;;;;6.95;1.50;;;;;;;10.88;69.54;99519.91;1777257;79;20999;-86
2022/09/16 01:24:02;;;;;;;6.53;2.37;;;;;;;10.83;69.60;99524.27;1781085;79;20987;-86
2022/09/16 01:26:49;;;;;;;6.83;1.75;;;;;;;10.78;69.73;99525.58;1772723;79;21039;-87
2022/09/16 01:29:39;;;;;;;9.98;2.10;;;;;;;10.71;69.82;99519.84;1784298;79;21043;-86
2022/09/16 01:32:39;;;;;;;7.67;2.22;;;;;;;10.65;69.93;99522.00;1795006;79;21935;-87
2022/09/16 01:35:17;;;;;;;10.25;2.10;;;;;;;10.59;70.10;99526.38;1775191;79;21547;-87
2022/09/16 01:38:14;;;;;;;6.20;1.95;;;;;;;10.54;70.22;99532.91;1768237;79;21165;-88
2022/09/16 01:40:53;;;;;;;11.80;2.20;;;;;;;10.51;70.35;99536.86;1772113;78;21054;-87
2022/09/16 01:43:36;;;;;;;8.63;2.13;;;;;;;10.46;70.55;99537.27;1783451;79;21545;-87
2022/09/16 01:46:18;;;;;;;7.92;2.22;;;;;;;10.42;70.66;99528.47;1784366;79;21853;-87
2022/09/16 01:48:53;;;;;;;10.30;3.25;;;;;;;10.41;70.84;99533.27;1779724;79;20959;-87
2022/09/16 01:51:31;;;;;;;11.45;2.58;;;;;;;10.38;70.94;99535.00;1787577;79;21359;-86
2022/09/16 01:54:03;;;;;;;11.78;2.12;;;;;;;10.34;71.07;99532.78;1789083;79;21086;-85
2022/09/16 01:56:38;;;;;;;9.95;2.87;;;;;;;10.31;71.11;99528.39;1777835;79;21439;-86
2022/09/16 01:59:12;;;;;;;9.08;2.15;;;;;;;10.27;71.21;99529.22;1781164;78;21729;-86
2022/09/16 02:02:02;;;;;;;9.43;2.25;;;;;;;10.27;71.32;99528.34;1790044;79;21034;-86
2022/09/16 02:04:35;;;;;;;8.23;2.30;;;;;;;10.24;71.40;99529.19;1798485;79;21153;-87
2022/09/16 02:07:03;;;;;;;;;;;;;;;10.24;71.52;99532.27;1793366;79;21331;-86
2022/09/16 02:09:34;;;;;;;7.58;2.17;;;;;;;10.23;71.64;99530.08;1791916;78;20637;-87
2022/09/16 02:12:04;;;;;;;14.55;2.67;;;;;;;10.23;71.69;99523.91;1780833;79;22463;-87
2022/09/16 02:14:35;;;;;;;10.20;2.35;;;;;;;10.19;71.73;99519.50;1798238;79;21055;-87
2022/09/16 02:17:07;;;;;;;8.20;2.33;;;;;;;10.19;71.75;99526.98;1797935;78;21109;-87
2022/09/16 02:19:56;;;;;;;9.93;1.98;;;;;;;10.19;71.79;99530.02;1768552;79;21077;-87
2022/09/16 02:22:50;;;;;;;11.48;2.90;;;;;;;10.15;71.75;99529.13;1798223;78;21633;-87
2022/09/16 02:25:17;;;;;;;6.85;1.55;;;;;;;10.12;71.77;99525.17;1798309;78;22431;-87
2022/09/16 02:27:45;;;;;;;10.35;2.20;;;;;;;10.08;71.79;99522.95;1767345;79;22113;-87
2022/09/16 02:30:17;;;;;;;9.55;1.67;;;;;;;10.06;71.79;99526.42;1797898;78;21112;-87
2022/09/16 02:32:59;;;;;;;10.72;2.15;;;;;;;10.03;71.81;99522.48;1798043;78;21070;-87
2022/09/16 02:35:26;;;;;;;10.85;2.05;;;;;;;10.02;71.85;99524.64;1761242;79;21480;-87
2022/09/16 02:38:00;;;;;;;10.68;1.90;;;;;;;10.00;71.89;99519.81;1798267;79;21746;-88
2022/09/16 02:40:31;;;;;;;9.53;1.92;;;;;;;9.98;71.98;99513.22;1798064;78;21502;-87
2022/09/16 02:42:58;;;;;;;7.83;2.08;;;;;;;9.99;72.09;99512.81;1790462;79;21053;-87
2022/09/16 02:45:29;;;;;;;10.30;2.87;;;;;;;9.99;72.21;99509.74;1739077;80;21566;-87
2022/09/16 02:48:15;;;;;;;11.60;2.05;;;;;;;10.00;72.31;99505.36;1739191;80;21047;-87
2022/09/16 02:50:59;;;;;;;9.80;2.00;;;;;;;10.01;72.43;99509.76;1739530;80;21747;-87
2022/09/16 02:53:35;;;;;;;11.15;2.27;;;;;;;10.03;72.52;99514.15;1738881;81;21074;-87
2022/09/16 02:56:05;;;;;;;9.48;2.10;;;;;;;10.03;72.59;99507.58;1762395;78;21058;-87
2022/09/16 02:58:32;;;;;;;11.80;2.45;;;;;;;10.05;72.66;99507.15;1766536;78;21693;-87
2022/09/16 03:00:59;;;;;;;11.78;2.83;;;;;;;10.04;72.71;99511.98;1792885;78;21559;-88
2022/09/16 03:03:25;;;;;;;12.58;2.30;;;;;;;10.05;72.72;99524.68;1791851;78;22404;-88
2022/09/16 03:06:21;;;;;;;12.35;2.35;;;;;;;10.04;72.76;99525.12;1784271;78;21539;-88
2022/09/16 03:08:48;;;;;;;11.35;2.58;;;;;;;10.03;72.84;99522.03;1785830;78;21058;-86
2022/09/16 03:11:49;;;;;;;6.00;1.75;;;;;;;10.04;72.91;99517.65;1741694;79;21012;-86
2022/09/16 03:14:51;;;;;;;5.83;1.95;;;;;;;10.03;72.92;99516.78;1794044;78;21062;-87
2022/09/16 03:17:55;;;;;;;8.63;2.25;;;;;;;10.02;72.94;99516.34;1784650;79;22240;-87
2022/09/16 03:20:36;;;;;;;6.62;2.05;;;;;;;10.02;73.01;99520.30;1781126;79;21034;-88
2022/09/16 03:23:27;;;;;;;11.45;2.47;;;;;;;10.02;73.01;99520.30;1795797;78;21350;-88
2022/09/16 03:26:08;;;;;;;7.45;2.10;;;;;;;10.03;73.01;99523.80;1788989;78;20975;-88
2022/09/16 03:29:06;;;;;;;8.50;2.27;;;;;;;10.02;73.06;99522.92;1787943;78;21074;-87
2022/09/16 03:32:04;;;;;;;7.42;2.05;;;;;;;10.01;72.99;99524.22;1798244;78;22472;-87
2022/09/16 03:34:44;;;;;;;6.97;1.75;;;;;;;9.98;73.07;99521.11;1752099;80;21140;-87
2022/09/16 03:37:14;;;;;;;14.15;2.25;;;;;;;9.97;73.11;99522.00;1682616;82;21082;-87
2022/09/16 03:39:40;;;;;;;7.25;2.20;;;;;;;9.96;73.13;99528.55;1751686;80;21073;-86
2022/09/16 03:42:10;;;;;;;12.07;2.75;;;;;;;9.92;73.15;99525.02;1797047;78;21026;-87
2022/09/16 03:44:38;;;;;;;13.60;2.70;;;;;;;9.89;73.21;99528.52;1797854;79;22505;-86
2022/09/16 03:47:06;;;;;;;11.75;1.87;;;;;;;9.87;73.26;99522.36;1766156;80;21036;-86
2022/09/16 03:49:34;;;;;;;8.85;2.17;;;;;;;9.86;73.35;99530.23;1743185;80;21084;-86
2022/09/16 03:52:01;;;;;;;4.80;1.92;;;;;;;9.86;73.43;99521.91;1763906;80;21393;-86
2022/09/16 03:54:27;;;;;;;8.48;2.10;;;;;;;9.88;73.47;99520.61;1751430;80;21051;-86
2022/09/16 03:56:54;;;;;;;11.10;2.10;;;;;;;9.89;73.53;99524.98;1765214;80;22226;-86
2022/09/16 03:59:21;;;;;;;11.20;2.50;;;;;;;9.91;73.57;99532.47;1782266;79;21521;-85
2022/09/16 04:01:47;;;;;;;9.55;2.10;;;;;;;9.92;73.57;99529.83;1780334;79;21051;-86
2022/09/16 04:04:14;;;;;;;8.68;2.05;;;;;;;9.94;73.61;99532.48;1772668;80;21078;-87
2022/09/16 04:06:41;;;;;;;9.55;2.42;;;;;;;9.93;73.58;99534.67;1768406;80;20982;-86
2022/09/16 04:09:11;;;;;;;12.23;2.52;;;;;;;9.94;73.61;99533.79;1789275;80;21783;-86
2022/09/16 04:11:38;;;;;;;11.90;3.05;;;;;;;9.93;73.63;99539.48;1767598;80;21087;-86
2022/09/16 04:14:05;;;;;;;8.30;2.25;;;;;;;9.93;73.61;99545.19;1772374;80;21086;-87
2022/09/16 04:16:32;;;;;;;9.70;1.95;;;;;;;9.92;73.64;99544.28;1772076;80;21051;-86
2022/09/16 04:18:59;;;;;;;11.30;2.60;;;;;;;9.92;73.71;99542.97;1774978;80;21137;-91
2022/09/16 04:21:26;;;;;;;9.43;1.95;;;;;;;9.95;73.70;99546.48;1768144;78;21736;-89
2022/09/16 04:23:55;;;;;;;10.53;2.15;;;;;;;9.95;73.71;99545.17;1776275;80;21059;-91
2022/09/16 04:26:23;;;;;;;7.17;2.10;;;;;;;9.95;73.73;99550.44;1778107;79;21564;-88
2022/09/16 04:28:53;;;;;;;10.72;2.17;;;;;;;9.97;73.78;99545.66;1775589;80;21050;-90
2022/09/16 04:31:20;;;;;;;14.03;2.05;;;;;;;10.01;73.79;99539.98;1771101;80;21066;-86
2022/09/16 04:33:47;;;;;;;12.78;2.40;;;;;;;10.07;73.78;99546.60;1779151;80;22293;-86
2022/09/16 04:36:17;;;;;;;8.15;2.33;;;;;;;10.25;74.04;99541.48;1751236;80;21062;-86
2022/09/16 04:38:44;;;;;;;15.18;2.47;;;;;;;10.61;74.25;99543.05;1765503;80;21132;-86
2022/09/16 04:41:15;;;;;;;10.00;1.98;;;;;;;11.03;74.08;99535.77;1774007;80;21087;-86
2022/09/16 04:43:41;;;;;;;5.25;1.70;;;;;;;11.46;73.78;99533.24;1776226;80;21052;-86
2022/09/16 04:46:08;;;;;;;9.70;2.33;;;;;;;11.89;73.31;99535.50;1777093;79;21781;-86
2022/09/16 04:48:35;;;;;;;9.75;2.35;;;;;;;12.24;72.81;99542.11;1776619;80;21120;-86
2022/09/16 04:51:08;;;;;;;8.15;2.08;;;;;;;12.51;72.16;99541.17;1790642;79;21067;-86
2022/09/16 04:53:36;;;;;;;7.72;2.08;;;;;;;12.62;71.41;99542.47;1775751;79;21603;-86
2022/09/16 04:56:20;;;;;;;8.80;2.12;;;;;;;12.68;70.81;99535.84;1786068;79;21643;-85
2022/09/16 04:58:50;;;;;;;;;;;;;;;12.59;70.43;99539.41;1784442;79;21717;-86
2022/09/16 05:01:23;;;;;;;8.70;2.35;;;;;;;12.50;70.19;99535.47;1792777;79;20205;-85
2022/09/16 05:03:52;;;;;;;7.15;1.98;;;;;;;12.49;70.29;99541.62;1769534;79;21065;-87
2022/09/16 05:06:25;;;;;;;10.13;1.60;;;;;;;12.50;70.03;99537.20;1779909;80;21028;-84
2022/09/16 05:08:52;;;;;;;14.93;2.65;;;;;;;12.49;69.94;99538.11;1768119;79;21268;-86
2022/09/16 05:11:22;;;;;;;9.15;2.17;;;;;;;12.55;69.89;99535.45;1756293;79;21746;-86
2022/09/16 05:13:49;;;;;;;9.13;2.10;;;;;;;12.54;69.64;99533.26;1755096;79;21090;-86
2022/09/16 05:16:18;;;;;;;9.65;2.05;;;;;;;12.47;69.50;99532.83;1773880;79;21086;-85
2022/09/16 05:18:46;;;;;;;14.68;2.55;;;;;;;12.40;69.45;99537.67;1772562;79;21066;-86
2022/09/16 05:21:20;;;;;;;11.00;2.30;;;;;;;12.31;69.39;99537.69;1781094;79;20994;-85
2022/09/16 05:23:47;;;;;;;8.43;2.08;;;;;;;12.22;69.46;99538.60;1771220;79;21744;-86
2022/09/16 05:26:17;;;;;;;9.50;2.30;;;;;;;12.15;69.36;99539.48;1772552;79;21063;-85
2022/09/16 05:28:44;;;;;;;12.80;2.40;;;;;;;12.06;69.36;99537.72;1780651;79;21071;-86
2022/09/16 05:31:27;;;;;;;8.03;2.30;;;;;;;12.00;69.39;99533.33;1771694;79;21136;-86
2022/09/16 05:33:57;;;;;;;13.03;2.35;;;;;;;11.91;69.36;99533.33;1778354;79;21536;-86
2022/09/16 05:36:25;;;;;;;8.35;2.30;;;;;;;11.79;69.46;99524.95;1765723;79;22175;-86
2022/09/16 05:38:52;;;;;;;10.05;2.30;;;;;;;11.72;69.43;99517.91;1770122;79;21086;-86
2022/09/16 05:41:18;;;;;;;7.75;2.15;;;;;;;11.64;69.50;99532.86;1765468;79;21121;-85
2022/09/16 05:43:45;;;;;;;8.93;2.15;;;;;;;11.58;69.61;99526.23;1770059;79;21060;-86
2022/09/16 05:46:17;;;;;;;10.75;2.45;;;;;;;11.57;69.76;99520.54;1772376;79;20987;-85
2022/09/16 05:48:44;;;;;;;12.20;2.83;;;;;;;11.61;69.90;99528.44;1778138;78;21958;-85
2022/09/16 05:51:14;;;;;;;9.30;2.05;;;;;;;11.67;70.00;99519.23;1772796;79;20990;-85
2022/09/16 05:53:41;;;;;;;6.03;2.02;;;;;;;11.77;70.05;99516.16;1772485;79;21225;-85
2022/09/16 05:56:12;;;;;;;9.58;2.20;;;;;;;11.84;69.94;99524.52;1768828;79;21074;-85
2022/09/16 05:58:39;;;;;;;12.00;2.67;;;;;;;11.92;69.91;99531.14;1788207;79;21113;-85
2022/09/16 06:01:13;;;;;;;13.15;2.67;;;;;;;11.98;69.81;99532.90;1795530;79;21799;-85
2022/09/16 06:03:42;;;;;;;6.87;2.15;;;;;;;12.05;69.79;99527.62;1795865;79;21054;-85
2022/09/16 06:06:28;;;;;;;7.60;2.27;;;;;;;12.12;69.69;99519.23;1796491;78;21065;-85
2022/09/16 06:08:59;;;;;;;11.73;2.08;;;;;;;12.18;69.54;99522.31;1795839;79;21062;-85
2022/09/16 06:11:27;;;;;;;8.88;2.33;;;;;;;12.23;69.44;99515.28;1795618;79;21607;-85
2022/09/16 06:13:56;;;;;;;9.63;2.40;;;;;;;12.34;69.45;99515.27;1795680;79;21725;-85
2022/09/16 06:16:27;;;;;;;11.40;2.70;;;;;;;12.42;69.31;99509.52;1794762;79;21063;-86
2022/09/16 06:18:54;;;;;;;9.58;1.82;;;;;;;12.48;69.17;99508.21;1795518;79;21027;-85
2022/09/16 06:21:20;;;;;;;11.45;2.50;;;;;;;12.56;69.06;99516.10;1795546;79;21069;-85
2022/09/16 06:23:47;;;;;;;11.53;2.40;;;;;;;12.66;68.97;99511.66;1795592;79;21531;-85
2022/09/16 06:26:17;;;;;;;6.55;1.87;;;;;;;12.74;68.85;99508.09;1795539;79;21717;-85
2022/09/16 06:28:43;;;;;;;10.98;1.95;;;;;;;12.84;68.65;99511.15;1795322;79;21062;-85
2022/09/16 06:31:15;;;;;;;11.18;2.45;;;;;;;13.02;68.61;99507.98;1780693;79;21117;-85
2022/09/16 06:33:42;;;;;;;9.98;2.40;;;;;;;13.18;68.35;99507.02;1752556;80;21145;-85
2022/09/16 06:36:14;;;;;;;10.35;2.75;;;;;;;13.38;68.18;99504.72;1752379;80;21081;-85
2022/09/16 06:38:40;;;;;;;6.83;2.17;;;;;;;13.52;67.85;99502.01;1752392;80;21805;-85
2022/09/16 06:41:09;;;;;;;8.43;1.98;;;;;;;13.69;67.62;99503.20;1752425;81;21104;-85
2022/09/16 06:43:36;;;;;;;10.82;2.45;;;;;;;13.84;67.34;99492.95;1751993;80;21125;-85
2022/09/16 06:46:14;;;;;;;10.23;2.25;;;;;;;14.02;67.16;99494.11;1769483;79;21054;-86
2022/09/16 06:48:46;;;;;;;13.28;2.80;;;;;;;14.18;66.91;99500.99;1792082;79;21019;-86
2022/09/16 06:51:16;;;;;;;11.10;2.27;;;;;;;14.22;66.32;99483.77;1730829;81;21909;-85
2022/09/16 06:53:43;;;;;;;7.60;2.40;;;;;;;14.27;65.91;99489.45;1787577;80;20927;-86
2022/09/16 06:56:12;;;;;;;9.53;2.55;;;;;;;14.34;65.93;99501.73;1779700;78;21132;-86
2022/09/16 06:58:41;;;;;;;10.30;2.50;;;;;;;14.54;65.95;99493.55;1773721;80;21093;-85
2022/09/16 07:01:13;;;;;;;14.05;2.52;;;;;;;14.66;65.40;99489.94;1791623;79;21064;-85
2022/09/16 07:03:42;;;;;;;6.85;2.30;;;;;;;14.66;64.97;99483.74;1792547;79;21785;-86
2022/09/16 07:06:10;;;;;;;6.95;2.40;;;;;;;14.64;64.75;99496.13;1792691;79;21074;-86
2022/09/16 07:08:37;;;;;;;7.05;2.27;;;;;;;14.60;64.57;99493.96;1792806;79;21620;-86
2022/09/16 07:11:10;;;;;;;6.95;2.10;;;;;;;14.60;64.32;99493.96;1792807;79;21682;-85
2022/09/16 07:13:37;;;;;;;7.87;3.08;;;;;;;14.62;64.18;99499.25;1794344;79;21933;-86
2022/09/16 07:16:07;;;;;;;10.75;2.37;;;;;;;14.65;63.93;99494.80;1793024;79;21687;-85
2022/09/16 07:18:34;;;;;;;10.98;2.60;;;;;;;14.75;64.06;99500.43;1794486;79;20983;-85
2022/09/16 07:21:05;;;;;;;8.15;1.87;;;;;;;14.76;63.53;99494.67;1794703;79;21335;-86
2022/09/16 07:23:33;;;;;;;9.58;2.37;;;;;;;14.74;63.36;99488.06;1794367;78;21402;-86
2022/09/16 07:26:04;;;;;;;7.70;2.05;;;;;;;14.72;63.24;99489.86;1793768;79;21066;-86
2022/09/16 07:28:31;;;;;;;11.53;3.02;;;;;;;14.69;63.10;99492.98;1792686;79;21801;-85
2022/09/16 07:31:07;;;;;;;13.08;2.42;;;;;;;14.67;63.07;99488.16;1772640;79;21014;-85
2022/09/16 07:33:46;;;;;;;9.58;2.10;;;;;;;14.58;62.80;99489.13;1794205;79;20972;-85
2022/09/16 07:36:15;;;;;;;12.65;2.35;;;;;;;14.50;62.94;99497.13;1793453;79;21126;-86
2022/09/16 07:38:42;;;;;;;4.97;1.80;;;;;;;14.52;63.06;99495.80;1792802;79;21094;-85
2022/09/16 07:41:11;;;;;;;11.43;2.25;;;;;;;14.60;63.12;99494.42;1793226;79;21735;-84
2022/09/16 07:43:39;;;;;;;13.25;2.80;;;;;;;14.76;63.26;99501.30;1794735;79;21050;-84
2022/09/16 07:46:06;;;;;;;6.83;2.35;;;;;;;14.95;63.01;99488.23;1793740;79;21031;-85
2022/09/16 07:48:33;;;;;;;10.60;2.40;;;;;;;15.18;62.74;99482.20;1794544;79;21504;-84
2022/09/16 07:51:06;;;;;;;15.65;2.75;;;;;;;15.28;62.40;99490.01;1794157;79;21054;-85
2022/09/16 07:53:33;;;;;;;8.10;1.90;;;;;;;15.34;61.89;99492.56;1757122;79;22355;-85
2022/09/16 07:56:12;;;;;;;7.03;2.40;;;;;;;15.36;61.77;99486.78;1784550;79;21066;-86
2022/09/16 07:58:41;;;;;;;5.60;2.08;;;;;;;15.43;61.51;99486.26;1779323;79;21058;-85
2022/09/16 08:01:08;;;;;;;9.40;2.33;;;;;;;15.50;61.38;99491.00;1792697;79;21177;-85
2022/09/16 08:03:35;;;;;;;8.73;2.33;;;;;;;15.61;60.97;99497.47;1772976;79;21039;-85
2022/09/16 08:06:05;;;;;;;9.35;2.72;;;;;;;15.67;60.79;99488.98;1781607;79;22635;-86
2022/09/16 08:08:32;;;;;;;11.73;2.35;;;;;;;15.76;60.61;99493.73;1790499;79;21067;-86
2022/09/16 08:11:00;;;;;;;6.22;1.98;;;;;;;15.83;60.22;99495.39;1792565;79;21488;-85
2022/09/16 08:13:28;;;;;;;5.25;1.70;;;;;;;15.90;60.09;99500.56;1792908;79;21058;-85
2022/09/16 08:16:02;;;;;;;9.38;2.30;;;;;;;15.99;59.77;99494.66;1792819;79;22189;-85
2022/09/16 08:18:29;;;;;;;7.97;2.00;;;;;;;16.07;59.60;99494.97;1772251;79;21756;-86
2022/09/16 08:20:55;;;;;;;6.12;1.98;;;;;;;16.23;59.66;99494.22;1792801;79;21027;-86
2022/09/16 08:23:22;;;;;;;8.70;2.10;;;;;;;16.41;59.49;99498.33;1792763;79;21066;-86
2022/09/16 08:26:02;;;;;;;12.65;3.05;;;;;;;16.64;59.05;99497.01;1792737;79;21050;-86
2022/09/16 08:28:27;;;;;;;5.70;2.35;;;;;;;16.81;58.46;99493.55;1781992;79;22421;-85
2022/09/16 08:30:54;;;;;;;8.15;2.15;;;;;;;16.95;58.33;99498.63;1792638;79;22546;-85
2022/09/16 08:33:24;;;;;;;6.47;1.92;;;;;;;17.07;57.97;99513.44;1755225;79;21098;-85
2022/09/16 08:36:07;;;;;;;7.10;2.80;;;;;;;17.11;57.54;99509.80;1792465;78;21573;-86
2022/09/16 08:38:34;;;;;;;4.85;1.82;;;;;;;17.16;57.29;99511.91;1767955;79;28783;-85
2022/09/16 08:41:27;;;;;;;5.95;1.90;;;;;;;17.25;57.08;99518.82;1751492;81;21085;-85
2022/09/16 08:44:14;;;;;;;6.58;1.85;;;;;;;17.38;56.78;99519.40;1778849;79;21765;-85
2022/09/16 08:46:57;;;;;;;5.05;1.80;;;;;;;17.47;56.34;99509.45;1796481;79;21062;-86
2022/09/16 08:49:45;;;;;;;4.75;1.77;;;;;;;17.67;56.18;99507.63;1790461;79;21050;-86
2022/09/16 08:52:30;;;;;;;6.50;1.80;;;;;;;18.02;56.21;99505.92;1791281;80;21415;-86
2022/09/16 08:55:11;;;;;;;4.45;1.80;;;;;;;18.39;56.02;99494.75;1791459;79;20975;-86
2022/09/16 08:57:42;;;;;;;7.85;2.20;;;;;;;18.62;55.60;99495.47;1769586;80;22935;-86
2022/09/16 09:00:17;;;;;;;8.83;2.20;;;;;;;18.77;54.88;99505.69;1781241;79;20868;-86
2022/09/16 09:03:19;;;;;;;6.70;1.85;;;;;;;18.81;54.28;99499.84;1764159;80;20976;-86
2022/09/16 09:05:55;;;;;;;4.12;1.75;;;;;;;18.84;54.21;99496.64;1791426;79;21011;-86
2022/09/16 09:08:59;;;;;;;5.97;2.08;;;;;;;18.84;53.42;99497.97;1771758;80;21011;-85
2022/09/16 09:11:43;;;;;;;5.58;1.45;;;;;;;18.76;53.15;99494.59;1791906;80;22368;-86
2022/09/16 09:14:18;;;;;;;3.55;1.42;;;;;;;18.66;53.07;99503.79;1791263;79;20991;-86
2022/09/16 09:17:07;;;;;;;6.62;1.50;;;;;;;18.71;53.00;99499.18;1791672;80;20968;-86
2022/09/16 09:20:02;;;;;;;5.95;1.52;;;;;;;18.85;52.89;99501.50;1793033;80;21016;-86
2022/09/16 09:23:06;;;;;;;6.35;1.90;;;;;;;19.02;52.84;99505.01;1796196;79;21027;-85
2022/09/16 09:25:47;;;;;;;9.73;1.65;;;;;;;19.20;52.59;99499.56;1773898;80;21712;-86
2022/09/16 09:28:22;;;;;;;9.15;1.47;;;;;;;19.32;51.96;99497.87;1779119;79;21631;-86
2022/09/16 09:31:00;;;;;;;10.88;2.10;;;;;;;19.23;51.68;99496.34;1790093;79;21090;-85
2022/09/16 09:33:38;;;;;;;11.70;2.37;;;;;;;19.11;51.38;99495.87;1788620;79;21078;-86
2022/09/16 09:36:30;;;;;;;5.33;1.95;;;;;;;18.96;51.23;99501.20;1791280;80;21059;-85
2022/09/16 09:39:23;;;;;;;5.80;1.60;;;;;;;19.01;51.16;99509.91;1750532;80;22372;-85
2022/09/16 09:42:00;;;;;;;5.90;1.40;;;;;;;18.89;50.88;99513.82;1786820;79;21097;-85
2022/09/16 09:44:47;;;;;;;5.90;1.35;;;;;;;18.74;50.80;99514.23;1759045;80;21164;-86
2022/09/16 09:47:37;;;;;;;6.80;1.80;;;;;;;18.60;50.58;99510.16;1791449;79;21153;-86
2022/09/16 09:50:27;;;;;;;7.20;1.42;;;;;;;18.47;50.78;99486.11;1789977;79;22365;-86
2022/09/16 09:53:14;;;;;;;5.58;2.35;;;;;;;18.32;50.88;99509.14;1793210;79;21756;-86
2022/09/16 09:55:42;;;;;;;5.37;1.62;;;;;;;18.38;50.94;99516.53;1768332;79;21062;-86
2022/09/16 09:58:26;;;;;;;8.90;2.80;;;;;;;18.50;50.99;99514.45;1774101;79;21078;-85
2022/09/16 10:00:56;;;;;;;4.67;1.50;;;;;;;18.57;50.53;99518.70;1794444;79;20972;-86
2022/09/16 10:03:21;;;;;;;5.33;1.52;;;;;;;18.63;50.24;99514.52;1793195;79;21568;-86
2022/09/16 10:05:48;;;;;;;6.65;2.42;;;;;;;18.77;50.30;99515.45;1792770;79;21835;-86
2022/09/16 10:08:26;;;;;;;5.83;1.65;;;;;;;18.90;49.83;99506.69;1792837;79;21066;-86
2022/09/16 10:10:55;;;;;;;7.50;1.30;;;;;;;18.89;49.53;99513.82;1792631;79;21098;-85
2022/09/16 10:13:24;;;;;;;5.90;1.77;;;;;;;19.07;49.75;99508.42;1771384;79;21106;-86
2022/09/16 10:15:53;;;;;;;4.87;1.00;;;;;;;19.25;49.63;99508.30;1792450;79;21894;-85
2022/09/16 10:18:30;;;;;;;4.22;1.32;;;;;;;19.31;49.20;99521.45;1765830;80;21657;-85
2022/09/16 10:21:10;;;;;;;4.80;1.22;;;;;;;19.36;49.05;99513.33;1761449;80;21047;-85
2022/09/16 10:23:37;;;;;;;9.00;1.87;;;;;;;19.43;48.68;99518.89;1773214;79;21540;-85
2022/09/16 10:26:23;;;;;;;9.93;1.90;;;;;;;19.25;48.37;99519.45;1792557;79;21552;-85
2022/09/16 10:29:14;;;;;;;6.62;1.80;;;;;;;18.93;48.13;99518.14;1772756;79;21106;-85
2022/09/16 10:31:41;;;;;;;7.92;1.47;;;;;;;18.61;48.34;99527.02;1793280;79;21697;-86
2022/09/16 10:34:28;;;;;;;8.58;1.57;;;;;;;18.24;48.40;99528.89;1793719;79;21055;-86
2022/09/16 10:37:04;;;;;;;4.62;1.40;;;;;;;18.01;48.66;99521.47;1792440;79;21730;-86
2022/09/16 10:39:32;;;;;;;5.30;1.22;;;;;;;17.85;49.00;99528.11;1792606;79;21113;-85
2022/09/16 10:41:59;;;;;;;8.90;2.10;;;;;;;17.79;49.03;99528.20;1792816;79;21888;-86
2022/09/16 10:44:29;;;;;;;5.33;1.07;;;;;;;17.74;49.07;99523.00;1792687;79;21767;-86
2022/09/16 10:47:00;;;;;;;5.35;1.37;;;;;;;17.76;49.38;99533.16;1793865;79;21117;-85
2022/09/16 10:49:53;;;;;;;6.55;1.32;;;;;;;17.75;49.31;99526.06;1798121;78;21059;-86
2022/09/16 10:52:25;;;;;;;5.85;1.65;;;;;;;17.67;49.44;99522.27;1791385;79;21087;-86
2022/09/16 10:54:52;;;;;;;4.10;1.30;;;;;;;17.56;49.32;99514.13;1798239;78;21650;-85
2022/09/16 10:57:32;;;;;;;10.08;1.47;;;;;;;17.56;49.37;99535.41;1775786;79;21787;-85
2022/09/16 11:00:17;;;;;;;6.83;1.87;;;;;;;17.51;49.50;99542.15;1798222;79;21623;-85
2022/09/16 11:03:26;;;;;;;8.88;1.45;;;;;;;17.49;49.68;99543.97;1798159;79;21047;-86
2022/09/16 11:05:58;;;;;;;5.85;1.70;;;;;;;17.55;49.83;99547.84;1797471;78;21058;-85
2022/09/16 11:08:57;;;;;;;3.60;1.05;;;;;;;17.77;49.90;99553.98;1781755;78;21629;-87
2022/09/16 11:11:51;;;;;;;5.20;1.52;;;;;;;17.91;49.59;99561.69;1798475;78;22527;-85
2022/09/16 11:14:35;;;;;;;7.70;1.67;;;;;;;18.01;49.27;99553.42;1798098;78;21090;-86
2022/09/16 11:17:27;;;;;;;4.33;1.22;;;;;;;18.08;49.33;99555.48;1798078;78;21141;-86
2022/09/16 11:20:26;;;;;;;5.12;1.90;;;;;;;18.07;49.02;99556.39;1776510;78;21070;-85
2022/09/16 11:23:11;;;;;;;7.45;1.50;;;;;;;17.88;48.83;99547.98;1775398;78;21500;-85
2022/09/16 11:25:54;;;;;;;17.02;2.08;;;;;;;17.66;48.92;99555.12;1797802;78;22406;-86
2022/09/16 11:29:02;;;;;;;4.83;1.65;;;;;;;17.54;49.17;99549.20;1792765;78;21531;-85
2022/09/16 11:31:40;;;;;;;8.50;1.98;;;;;;;17.63;49.26;99543.20;1791014;79;21054;-85
2022/09/16 11:34:32;;;;;;;8.43;1.60;;;;;;;17.71;49.25;99556.33;1799786;78;21450;-85
2022/09/16 11:37:44;;;;;;;7.92;1.62;;;;;;;17.68;49.03;99546.64;1799837;78;21026;-85
2022/09/16 11:40:16;;;;;;;7.75;1.55;;;;;;;17.75;48.98;99547.83;1715963;78;22422;-85
2022/09/16 11:42:51;;;;;;;5.90;1.42;;;;;;;17.79;49.00;99566.36;1797154;78;21517;-85
2022/09/16 11:45:50;;;;;;;4.70;1.35;;;;;;;17.85;49.07;99564.05;1796576;78;20979;-85
2022/09/16 11:48:47;;;;;;;10.63;1.40;;;;;;;17.94;49.24;99566.45;1792011;79;21047;-85
2022/09/16 11:51:31;;;;;;;7.85;1.25;;;;;;;17.96;49.02;99563.33;1760026;80;21090;-85
2022/09/16 11:54:12;;;;;;;8.93;1.75;;;;;;;17.97;48.74;99552.22;1787924;79;22601;-85
2022/09/16 11:56:46;;;;;;;8.90;2.35;;;;;;;18.01;48.90;99556.55;1776392;79;21082;-85
2022/09/16 11:59:53;;;;;;;9.93;1.47;;;;;;;17.99;48.63;99553.05;1786492;79;21085;-85
2022/09/16 12:02:40;;;;;;;5.70;1.47;;;;;;;17.99;48.85;99549.06;1792409;79;21078;-85
2022/09/16 12:05:24;;;;;;;8.75;1.72;;;;;;;18.02;48.92;99552.52;1750273;81;21522;-85
2022/09/16 12:08:22;;;;;;;5.62;1.77;;;;;;;17.99;48.94;99557.05;1744934;80;21846;-85